TimeCDT,TemperatureF,Dew PointF,Humidity,Sea Level PressureIn,VisibilityMPH,Wind Direction,Wind SpeedMPH,Gust SpeedMPH,PrecipitationIn,Events,Conditions,WindDirDegrees,DateUTC
12:53 AM,46.9,25.0,42,30.34,10.0,ESE,4.6,-,N/A,,Clear,110,2013-03-27 05:53:00
1:53 AM,46.0,26.1,46,30.32,10.0,ESE,3.5,-,N/A,,Clear,110,2013-03-27 06:53:00
2:53 AM,45.0,25.0,46,30.31,10.0,ESE,3.5,-,N/A,,Clear,110,2013-03-27 07:53:00
3:53 AM,41.0,27.0,57,30.32,10.0,Calm,Calm,-,N/A,,Clear,0,2013-03-27 08:53:00
4:53 AM,39.0,27.0,62,30.30,10.0,Calm,Calm,-,N/A,,Clear,0,2013-03-27 09:53:00
5:53 AM,41.0,28.0,60,30.31,10.0,Calm,Calm,-,N/A,,Clear,0,2013-03-27 10:53:00
6:53 AM,39.9,28.0,63,30.32,10.0,Calm,Calm,-,N/A,,Clear,0,2013-03-27 11:53:00
7:53 AM,41.0,28.9,62,30.34,10.0,Calm,Calm,-,N/A,,Clear,0,2013-03-27 12:53:00
8:53 AM,48.9,36.0,61,30.35,10.0,SE,4.6,-,N/A,,Clear,140,2013-03-27 13:53:00
9:53 AM,55.9,36.0,47,30.35,10.0,SE,11.5,-,N/A,,Clear,130,2013-03-27 14:53:00
10:53 AM,61.0,32.0,34,30.35,10.0,SE,12.7,19.6,N/A,,Clear,140,2013-03-27 15:53:00
11:53 AM,62.1,35.1,37,30.34,10.0,SSE,12.7,19.6,N/A,,Clear,160,2013-03-27 16:53:00
12:53 PM,66.0,36.0,33,30.31,10.0,SSE,11.5,23.0,N/A,,Clear,160,2013-03-27 17:53:00
1:53 PM,69.1,33.1,26,30.28,10.0,South,15.0,24.2,N/A,,Clear,170,2013-03-27 18:53:00
2:53 PM,70.0,36.0,29,30.24,10.0,South,12.7,18.4,N/A,,Scattered Clouds,180,2013-03-27 19:53:00
3:53 PM,70.0,37.0,30,30.21,10.0,South,15.0,24.2,N/A,,Clear,170,2013-03-27 20:53:00
4:53 PM,71.1,39.0,31,30.18,10.0,SSE,15.0,-,N/A,,Partly Cloudy,160,2013-03-27 21:53:00
5:53 PM,70.0,39.9,33,30.17,10.0,SSE,15.0,-,N/A,,Overcast,160,2013-03-27 22:53:00
6:53 PM,68.0,41.0,37,30.17,10.0,SSE,13.8,-,N/A,,Overcast,150,2013-03-27 23:53:00
7:53 PM,66.0,43.0,43,30.17,10.0,SSE,12.7,-,N/A,,Overcast,160,2013-03-28 00:53:00
8:53 PM,63.0,43.0,48,30.20,10.0,SSE,13.8,-,N/A,,Mostly Cloudy,160,2013-03-28 01:53:00
9:53 PM,60.1,44.1,55,30.21,10.0,SSE,10.4,-,N/A,,Clear,160,2013-03-28 02:53:00
10:53 PM,59.0,46.0,62,30.22,10.0,South,9.2,-,N/A,,Clear,170,2013-03-28 03:53:00
11:53 PM,57.0,46.0,67,30.22,10.0,SSE,9.2,-,N/A,,Clear,160,2013-03-28 04:53:00